sensor_id;sensor_type;location;lat;lon;timestamp;pressure;altitude;pressure_sealevel;temperature;humidity
68077;BME280;54866;53.458;14.540;2023-06-01T00:00:15;100889.78;;;13.24;80.45
68077;BME280;54866;53.458;14.540;2023-06-01T00:02:45;100885.90;;;13.19;80.49
68077;BME280;54866;53.458;14.540;2023-06-01T00:05:15;100887.58;;;13.16;80.61
68077;BME280;54866;53.458;14.540;2023-06-01T00:07:44;100884.56;;;13.12;80.77
68077;BME280;54866;53.458;14.540;2023-06-01T00:10:14;100889.25;;;13.09;80.68
68077;BME280;54866;53.458;14.540;2023-06-01T00:12:44;100889.15;;;13.06;80.78
68077;BME280;54866;53.458;14.540;2023-06-01T00:15:13;100889.92;;;13.03;81.37
68077;BME280;54866;53.458;14.540;2023-06-01T00:17:43;100885.81;;;12.99;81.10
68077;BME280;54866;53.458;14.540;2023-06-01T00:20:13;100885.05;;;12.95;81.62
68077;BME280;54866;53.458;14.540;2023-06-01T00:22:42;100887.80;;;12.92;81.46
68077;BME280;54866;53.458;14.540;2023-06-01T00:25:12;100885.66;;;12.88;81.60
68077;BME280;54866;53.458;14.540;2023-06-01T00:27:42;100886.45;;;12.86;81.99
68077;BME280;54866;53.458;14.540;2023-06-01T00:30:14;100887.11;;;12.82;82.28
68077;BME280;54866;53.458;14.540;2023-06-01T00:32:43;100888.52;;;12.78;82.27
68077;BME280;54866;53.458;14.540;2023-06-01T00:35:13;100887.44;;;12.74;82.70
68077;BME280;54866;53.458;14.540;2023-06-01T00:37:42;100887.75;;;12.70;83.15
68077;BME280;54866;53.458;14.540;2023-06-01T00:40:13;100885.20;;;12.67;82.63
68077;BME280;54866;53.458;14.540;2023-06-01T00:42:42;100886.59;;;12.63;82.96
68077;BME280;54866;53.458;14.540;2023-06-01T00:45:12;100885.90;;;12.60;83.44
68077;BME280;54866;53.458;14.540;2023-06-01T00:47:43;100888.48;;;12.57;83.71
68077;BME280;54866;53.458;14.540;2023-06-01T00:50:13;100886.81;;;12.54;83.91
68077;BME280;54866;53.458;14.540;2023-06-01T00:52:43;100887.34;;;12.50;84.22
68077;BME280;54866;53.458;14.540;2023-06-01T00:55:14;100884.33;;;12.45;85.27
68077;BME280;54866;53.458;14.540;2023-06-01T00:57:44;100889.16;;;12.41;85.67
68077;BME280;54866;53.458;14.540;2023-06-01T01:00:14;100886.12;;;12.37;85.28
68077;BME280;54866;53.458;14.540;2023-06-01T01:02:44;100886.37;;;12.34;85.56
68077;BME280;54866;53.458;14.540;2023-06-01T01:05:13;100887.02;;;12.30;85.88
68077;BME280;54866;53.458;14.540;2023-06-01T01:08:00;100887.39;;;12.28;86.49
68077;BME280;54866;53.458;14.540;2023-06-01T01:10:38;100886.74;;;12.23;86.51
68077;BME280;54866;53.458;14.540;2023-06-01T01:13:13;100888.77;;;12.20;86.62
68077;BME280;54866;53.458;14.540;2023-06-01T01:15:51;100886.16;;;12.17;86.58
68077;BME280;54866;53.458;14.540;2023-06-01T01:18:28;100879.89;;;12.14;86.86
68077;BME280;54866;53.458;14.540;2023-06-01T01:21:03;100879.95;;;12.11;87.43
68077;BME280;54866;53.458;14.540;2023-06-01T01:24:10;100884.20;;;12.08;87.11
68077;BME280;54866;53.458;14.540;2023-06-01T01:26:54;100877.73;;;12.06;87.40
68077;BME280;54866;53.458;14.540;2023-06-01T01:29:27;100874.98;;;12.01;87.04
68077;BME280;54866;53.458;14.540;2023-06-01T01:32:01;100871.73;;;11.97;88.20
68077;BME280;54866;53.458;14.540;2023-06-01T01:34:33;100872.36;;;11.93;89.30
68077;BME280;54866;53.458;14.540;2023-06-01T01:37:03;100874.09;;;11.90;88.98
68077;BME280;54866;53.458;14.540;2023-06-01T01:39:33;100873.66;;;11.86;89.33
68077;BME280;54866;53.458;14.540;2023-06-01T01:42:03;100871.27;;;11.83;89.88
68077;BME280;54866;53.458;14.540;2023-06-01T01:44:33;100870.38;;;11.79;90.16
68077;BME280;54866;53.458;14.540;2023-06-01T01:47:07;100871.16;;;11.75;90.37
68077;BME280;54866;53.458;14.540;2023-06-01T01:49:44;100866.48;;;11.72;91.31
68077;BME280;54866;53.458;14.540;2023-06-01T01:52:18;100860.04;;;11.69;91.50
68077;BME280;54866;53.458;14.540;2023-06-01T01:54:50;100860.29;;;11.66;92.02
68077;BME280;54866;53.458;14.540;2023-06-01T01:57:21;100862.33;;;11.62;92.27
68077;BME280;54866;53.458;14.540;2023-06-01T01:59:52;100852.30;;;11.57;92.15
68077;BME280;54866;53.458;14.540;2023-06-01T02:02:22;100857.07;;;11.55;92.55
68077;BME280;54866;53.458;14.540;2023-06-01T02:04:52;100855.02;;;11.53;92.68
68077;BME280;54866;53.458;14.540;2023-06-01T02:07:21;100850.30;;;11.49;92.83
68077;BME280;54866;53.458;14.540;2023-06-01T02:09:51;100848.74;;;11.47;92.86
68077;BME280;54866;53.458;14.540;2023-06-01T02:12:21;100849.06;;;11.45;93.16
68077;BME280;54866;53.458;14.540;2023-06-01T02:14:50;100846.91;;;11.43;93.70
68077;BME280;54866;53.458;14.540;2023-06-01T02:17:20;100847.81;;;11.41;94.61
68077;BME280;54866;53.458;14.540;2023-06-01T02:19:50;100846.64;;;11.37;95.58
68077;BME280;54866;53.458;14.540;2023-06-01T02:22:20;100849.73;;;11.34;94.97
68077;BME280;54866;53.458;14.540;2023-06-01T02:24:49;100849.36;;;11.32;95.07
68077;BME280;54866;53.458;14.540;2023-06-01T02:27:19;100847.52;;;11.29;95.43
68077;BME280;54866;53.458;14.540;2023-06-01T02:29:48;100852.16;;;11.26;95.28
68077;BME280;54866;53.458;14.540;2023-06-01T02:32:18;100843.30;;;11.22;96.24
68077;BME280;54866;53.458;14.540;2023-06-01T02:34:47;100843.40;;;11.18;96.04
68077;BME280;54866;53.458;14.540;2023-06-01T02:37:17;100842.44;;;11.15;96.03
68077;BME280;54866;53.458;14.540;2023-06-01T02:39:47;100838.80;;;11.12;95.94
68077;BME280;54866;53.458;14.540;2023-06-01T02:42:16;100835.09;;;11.09;95.99
68077;BME280;54866;53.458;14.540;2023-06-01T02:44:46;100836.59;;;11.08;95.85
68077;BME280;54866;53.458;14.540;2023-06-01T02:47:15;100834.55;;;11.07;95.86
68077;BME280;54866;53.458;14.540;2023-06-01T02:49:45;100838.30;;;11.07;96.50
68077;BME280;54866;53.458;14.540;2023-06-01T02:52:15;100838.52;;;11.06;96.36
68077;BME280;54866;53.458;14.540;2023-06-01T03:23:43;100827.88;;;11.58;97.34
68077;BME280;54866;53.458;14.540;2023-06-01T03:26:13;100828.13;;;11.64;96.66
68077;BME280;54866;53.458;14.540;2023-06-01T03:28:42;100831.30;;;11.62;96.54
68077;BME280;54866;53.458;14.540;2023-06-01T03:31:12;100828.77;;;11.58;96.70
68077;BME280;54866;53.458;14.540;2023-06-01T03:33:41;100833.83;;;11.57;96.66
68077;BME280;54866;53.458;14.540;2023-06-01T03:36:11;100836.93;;;11.56;96.96
68077;BME280;54866;53.458;14.540;2023-06-01T03:38:40;100835.63;;;11.54;97.42
68077;BME280;54866;53.458;14.540;2023-06-01T03:41:11;100834.20;;;11.54;97.12
68077;BME280;54866;53.458;14.540;2023-06-01T03:43:40;100829.84;;;11.54;97.27
68077;BME280;54866;53.458;14.540;2023-06-01T03:46:10;100829.09;;;11.54;97.38
68077;BME280;54866;53.458;14.540;2023-06-01T03:48:39;100830.70;;;11.56;97.27
68077;BME280;54866;53.458;14.540;2023-06-01T03:51:09;100830.11;;;11.59;97.31
68077;BME280;54866;53.458;14.540;2023-06-01T03:53:38;100830.98;;;11.64;97.16
68077;BME280;54866;53.458;14.540;2023-06-01T03:56:08;100827.52;;;11.69;97.03
68077;BME280;54866;53.458;14.540;2023-06-01T03:58:38;100823.29;;;11.71;97.07
68077;BME280;54866;53.458;14.540;2023-06-01T04:01:08;100824.52;;;11.76;96.87
68077;BME280;54866;53.458;14.540;2023-06-01T04:03:40;100827.33;;;11.78;96.94
68077;BME280;54866;53.458;14.540;2023-06-01T04:06:11;100823.09;;;11.78;97.27
68077;BME280;54866;53.458;14.540;2023-06-01T04:08:45;100824.70;;;11.78;96.94
68077;BME280;54866;53.458;14.540;2023-06-01T04:11:18;100822.45;;;11.80;96.73
68077;BME280;54866;53.458;14.540;2023-06-01T04:13:47;100824.02;;;11.83;96.36
68077;BME280;54866;53.458;14.540;2023-06-01T04:16:17;100826.90;;;11.84;96.45
68077;BME280;54866;53.458;14.540;2023-06-01T04:18:47;100827.88;;;11.85;96.64
68077;BME280;54866;53.458;14.540;2023-06-01T04:21:16;100827.02;;;11.87;96.41
68077;BME280;54866;53.458;14.540;2023-06-01T04:23:46;100827.41;;;11.89;96.23
68077;BME280;54866;53.458;14.540;2023-06-01T04:26:16;100827.90;;;11.91;96.20
68077;BME280;54866;53.458;14.540;2023-06-01T04:28:46;100827.19;;;11.91;96.07
68077;BME280;54866;53.458;14.540;2023-06-01T04:31:16;100829.08;;;11.92;95.71
68077;BME280;54866;53.458;14.540;2023-06-01T04:33:47;100829.35;;;11.91;95.63
68077;BME280;54866;53.458;14.540;2023-06-01T04:36:20;100833.83;;;11.90;95.41
68077;BME280;54866;53.458;14.540;2023-06-01T04:38:50;100837.60;;;11.91;95.39
68077;BME280;54866;53.458;14.540;2023-06-01T04:41:22;100832.10;;;11.94;95.13
68077;BME280;54866;53.458;14.540;2023-06-01T04:43:53;100828.65;;;11.94;95.10
68077;BME280;54866;53.458;14.540;2023-06-01T04:46:24;100827.89;;;12.00;94.64
68077;BME280;54866;53.458;14.540;2023-06-01T04:48:54;100830.58;;;12.05;94.25
68077;BME280;54866;53.458;14.540;2023-06-01T04:51:25;100830.96;;;12.12;93.83
68077;BME280;54866;53.458;14.540;2023-06-01T04:53:55;100823.84;;;12.19;93.42
68077;BME280;54866;53.458;14.540;2023-06-01T04:56:25;100821.50;;;12.24;92.97
68077;BME280;54866;53.458;14.540;2023-06-01T04:58:56;100824.30;;;12.26;92.82
68077;BME280;54866;53.458;14.540;2023-06-01T05:01:26;100824.56;;;12.27;92.27
68077;BME280;54866;53.458;14.540;2023-06-01T05:03:57;100826.72;;;12.29;92.02
68077;BME280;54866;53.458;14.540;2023-06-01T05:06:27;100828.52;;;12.34;91.81
68077;BME280;54866;53.458;14.540;2023-06-01T05:08:56;100823.95;;;12.36;91.48
68077;BME280;54866;53.458;14.540;2023-06-01T05:11:26;100821.88;;;12.34;91.26
68077;BME280;54866;53.458;14.540;2023-06-01T05:13:56;100825.27;;;12.29;91.11
68077;BME280;54866;53.458;14.540;2023-06-01T05:16:28;100827.24;;;12.23;90.95
68077;BME280;54866;53.458;14.540;2023-06-01T05:18:57;100831.67;;;12.18;90.86
68077;BME280;54866;53.458;14.540;2023-06-01T05:21:27;100837.98;;;12.14;91.01
68077;BME280;54866;53.458;14.540;2023-06-01T05:23:56;100833.20;;;12.10;91.20
68077;BME280;54866;53.458;14.540;2023-06-01T05:26:26;100834.61;;;12.08;91.50
68077;BME280;54866;53.458;14.540;2023-06-01T05:28:55;100833.75;;;12.08;91.49
68077;BME280;54866;53.458;14.540;2023-06-01T05:31:26;100833.63;;;12.07;91.26
68077;BME280;54866;53.458;14.540;2023-06-01T05:33:56;100828.42;;;12.04;91.28
68077;BME280;54866;53.458;14.540;2023-06-01T05:36:25;100828.94;;;12.02;91.01
68077;BME280;54866;53.458;14.540;2023-06-01T05:38:55;100830.71;;;12.00;90.87
68077;BME280;54866;53.458;14.540;2023-06-01T05:41:25;100830.93;;;11.99;90.68
68077;BME280;54866;53.458;14.540;2023-06-01T05:43:55;100828.89;;;12.00;90.96
68077;BME280;54866;53.458;14.540;2023-06-01T05:46:25;100834.28;;;12.03;90.30
68077;BME280;54866;53.458;14.540;2023-06-01T05:48:54;100834.38;;;12.07;89.61
68077;BME280;54866;53.458;14.540;2023-06-01T05:51:24;100836.83;;;12.09;89.25
68077;BME280;54866;53.458;14.540;2023-06-01T05:53:54;100836.19;;;12.15;89.03
68077;BME280;54866;53.458;14.540;2023-06-01T05:56:23;100832.41;;;12.20;88.52
68077;BME280;54866;53.458;14.540;2023-06-01T05:58:54;100838.16;;;12.25;88.17
68077;BME280;54866;53.458;14.540;2023-06-01T06:01:23;100829.60;;;12.30;87.71
68077;BME280;54866;53.458;14.540;2023-06-01T06:03:55;100831.80;;;12.34;87.17
68077;BME280;54866;53.458;14.540;2023-06-01T06:06:26;100836.43;;;12.37;87.08
68077;BME280;54866;53.458;14.540;2023-06-01T06:08:56;100836.56;;;12.44;86.78
68077;BME280;54866;53.458;14.540;2023-06-01T06:11:26;100840.77;;;12.49;86.44
68077;BME280;54866;53.458;14.540;2023-06-01T06:13:55;100839.40;;;12.50;86.33
68077;BME280;54866;53.458;14.540;2023-06-01T06:16:25;100841.25;;;12.54;86.26
68077;BME280;54866;53.458;14.540;2023-06-01T06:18:55;100834.05;;;12.55;85.77
68077;BME280;54866;53.458;14.540;2023-06-01T06:21:24;100841.95;;;12.56;85.49
68077;BME280;54866;53.458;14.540;2023-06-01T06:23:54;100841.17;;;12.57;85.40
68077;BME280;54866;53.458;14.540;2023-06-01T06:26:27;100840.92;;;12.57;84.72
68077;BME280;54866;53.458;14.540;2023-06-01T06:28:56;100840.88;;;12.60;84.14
68077;BME280;54866;53.458;14.540;2023-06-01T06:31:26;100836.20;;;12.59;83.50
68077;BME280;54866;53.458;14.540;2023-06-01T06:33:56;100835.55;;;12.60;83.30
68077;BME280;54866;53.458;14.540;2023-06-01T06:36:25;100837.91;;;12.64;83.05
68077;BME280;54866;53.458;14.540;2023-06-01T06:38:55;100836.20;;;12.67;82.91
68077;BME280;54866;53.458;14.540;2023-06-01T06:41:24;100830.19;;;12.76;82.26
68077;BME280;54866;53.458;14.540;2023-06-01T06:43:54;100834.06;;;12.82;81.77
68077;BME280;54866;53.458;14.540;2023-06-01T06:46:24;100831.98;;;12.83;80.88
68077;BME280;54866;53.458;14.540;2023-06-01T06:48:53;100832.42;;;12.85;80.69
68077;BME280;54866;53.458;14.540;2023-06-01T06:51:23;100829.75;;;12.87;80.42
68077;BME280;54866;53.458;14.540;2023-06-01T06:53:53;100833.76;;;12.88;79.93
68077;BME280;54866;53.458;14.540;2023-06-01T06:56:22;100834.88;;;12.87;79.39
68077;BME280;54866;53.458;14.540;2023-06-01T06:58:53;100840.38;;;12.89;79.40
68077;BME280;54866;53.458;14.540;2023-06-01T07:01:23;100841.34;;;12.90;78.99
68077;BME280;54866;53.458;14.540;2023-06-01T07:03:55;100842.11;;;12.89;78.77
68077;BME280;54866;53.458;14.540;2023-06-01T07:06:25;100841.70;;;12.92;78.69
68077;BME280;54866;53.458;14.540;2023-06-01T07:08:54;100840.55;;;12.97;78.66
68077;BME280;54866;53.458;14.540;2023-06-01T07:11:24;100834.41;;;12.98;78.05
68077;BME280;54866;53.458;14.540;2023-06-01T07:13:55;100833.98;;;12.95;77.50
68077;BME280;54866;53.458;14.540;2023-06-01T07:16:26;100846.05;;;12.97;77.69
68077;BME280;54866;53.458;14.540;2023-06-01T07:18:57;100846.09;;;13.00;77.31
68077;BME280;54866;53.458;14.540;2023-06-01T07:21:27;100846.73;;;13.07;77.10
68077;BME280;54866;53.458;14.540;2023-06-01T07:23:56;100843.52;;;13.12;76.15
68077;BME280;54866;53.458;14.540;2023-06-01T07:26:26;100847.52;;;13.17;75.45
68077;BME280;54866;53.458;14.540;2023-06-01T07:28:58;100849.23;;;13.28;74.99
68077;BME280;54866;53.458;14.540;2023-06-01T07:31:28;100839.75;;;13.39;74.52
68077;BME280;54866;53.458;14.540;2023-06-01T07:33:57;100842.45;;;13.51;73.71
68077;BME280;54866;53.458;14.540;2023-06-01T07:36:27;100839.78;;;13.57;73.26
68077;BME280;54866;53.458;14.540;2023-06-01T07:39:01;100840.10;;;13.61;73.19
68077;BME280;54866;53.458;14.540;2023-06-01T07:41:34;100839.06;;;13.71;72.74
68077;BME280;54866;53.458;14.540;2023-06-01T07:44:04;100843.91;;;13.82;72.62
68077;BME280;54866;53.458;14.540;2023-06-01T07:46:33;100839.52;;;13.93;72.49
68077;BME280;54866;53.458;14.540;2023-06-01T07:49:03;100838.63;;;14.03;71.70
68077;BME280;54866;53.458;14.540;2023-06-01T07:51:32;100844.74;;;14.10;71.55
68077;BME280;54866;53.458;14.540;2023-06-01T07:54:02;100842.59;;;14.12;70.89
68077;BME280;54866;53.458;14.540;2023-06-01T07:56:32;100843.31;;;14.06;70.54
68077;BME280;54866;53.458;14.540;2023-06-01T07:59:02;100840.11;;;14.02;70.69
68077;BME280;54866;53.458;14.540;2023-06-01T08:01:32;100836.34;;;13.99;70.89
68077;BME280;54866;53.458;14.540;2023-06-01T08:04:02;100838.19;;;13.98;71.12
68077;BME280;54866;53.458;14.540;2023-06-01T08:06:31;100838.96;;;13.99;70.88
68077;BME280;54866;53.458;14.540;2023-06-01T08:09:04;100837.53;;;14.02;71.16
68077;BME280;54866;53.458;14.540;2023-06-01T08:11:34;100839.50;;;14.05;71.09
68077;BME280;54866;53.458;14.540;2023-06-01T08:14:03;100839.41;;;14.04;71.06
68077;BME280;54866;53.458;14.540;2023-06-01T08:16:35;100840.10;;;14.07;71.10
68077;BME280;54866;53.458;14.540;2023-06-01T08:19:05;100843.41;;;14.11;70.91
68077;BME280;54866;53.458;14.540;2023-06-01T08:21:35;100844.37;;;14.18;70.97
68077;BME280;54866;53.458;14.540;2023-06-01T08:24:05;100841.46;;;14.17;70.74
68077;BME280;54866;53.458;14.540;2023-06-01T08:26:36;100846.48;;;14.14;70.39
68077;BME280;54866;53.458;14.540;2023-06-01T08:29:05;100844.38;;;14.24;70.64
68077;BME280;54866;53.458;14.540;2023-06-01T08:31:35;100841.52;;;14.34;70.29
68077;BME280;54866;53.458;14.540;2023-06-01T08:34:06;100839.61;;;14.43;70.08
68077;BME280;54866;53.458;14.540;2023-06-01T08:36:36;100833.45;;;14.52;69.64
68077;BME280;54866;53.458;14.540;2023-06-01T08:39:22;100829.42;;;14.61;69.32
68077;BME280;54866;53.458;14.540;2023-06-01T08:42:03;100822.02;;;14.61;68.30
68077;BME280;54866;53.458;14.540;2023-06-01T08:44:37;100828.45;;;14.51;68.18
68077;BME280;54866;53.458;14.540;2023-06-01T08:47:08;100827.42;;;14.46;68.63
68077;BME280;54866;53.458;14.540;2023-06-01T08:49:38;100826.04;;;14.50;68.79
68077;BME280;54866;53.458;14.540;2023-06-01T08:52:13;100823.64;;;14.59;68.61
68077;BME280;54866;53.458;14.540;2023-06-01T08:54:43;100826.52;;;14.66;67.67
68077;BME280;54866;53.458;14.540;2023-06-01T08:57:13;100822.25;;;14.69;67.28
68077;BME280;54866;53.458;14.540;2023-06-01T08:59:46;100819.50;;;14.78;66.47
68077;BME280;54866;53.458;14.540;2023-06-01T09:02:16;100817.45;;;14.83;65.62
68077;BME280;54866;53.458;14.540;2023-06-01T09:04:46;100822.20;;;14.93;65.66
68077;BME280;54866;53.458;14.540;2023-06-01T09:07:16;100819.95;;;15.07;65.52
68077;BME280;54866;53.458;14.540;2023-06-01T09:09:46;100816.27;;;15.27;64.97
68077;BME280;54866;53.458;14.540;2023-06-01T09:12:21;100825.45;;;15.48;64.35
68077;BME280;54866;53.458;14.540;2023-06-01T09:14:54;100824.03;;;15.68;63.94
68077;BME280;54866;53.458;14.540;2023-06-01T09:17:35;100816.83;;;16.00;63.11
68077;BME280;54866;53.458;14.540;2023-06-01T09:20:10;100817.84;;;16.22;61.57
68077;BME280;54866;53.458;14.540;2023-06-01T09:22:41;100818.98;;;16.47;61.72
68077;BME280;54866;53.458;14.540;2023-06-01T09:25:12;100818.09;;;16.63;60.30
68077;BME280;54866;53.458;14.540;2023-06-01T09:27:47;100820.49;;;16.75;60.44
68077;BME280;54866;53.458;14.540;2023-06-01T09:30:18;100816.86;;;16.91;58.78
68077;BME280;54866;53.458;14.540;2023-06-01T09:32:48;100814.46;;;17.04;57.24
68077;BME280;54866;53.458;14.540;2023-06-01T09:35:38;100809.94;;;17.20;56.43
68077;BME280;54866;53.458;14.540;2023-06-01T09:38:08;100813.81;;;17.44;56.61
68077;BME280;54866;53.458;14.540;2023-06-01T09:40:39;100806.67;;;17.69;55.93
68077;BME280;54866;53.458;14.540;2023-06-01T09:43:21;100797.55;;;17.85;55.00
68077;BME280;54866;53.458;14.540;2023-06-01T09:46:08;100799.94;;;17.88;54.35
68077;BME280;54866;53.458;14.540;2023-06-01T09:48:38;100802.15;;;17.61;54.33
68077;BME280;54866;53.458;14.540;2023-06-01T09:51:22;100802.73;;;17.51;54.74
68077;BME280;54866;53.458;14.540;2023-06-01T09:53:53;100800.90;;;17.84;55.16
68077;BME280;54866;53.458;14.540;2023-06-01T09:56:23;100801.64;;;18.09;54.37
68077;BME280;54866;53.458;14.540;2023-06-01T09:58:59;100800.33;;;18.23;53.51
68077;BME280;54866;53.458;14.540;2023-06-01T10:01:31;100799.47;;;18.36;53.19
68077;BME280;54866;53.458;14.540;2023-06-01T10:04:01;100793.89;;;18.33;52.50
68077;BME280;54866;53.458;14.540;2023-06-01T10:06:38;100797.36;;;18.32;52.94
68077;BME280;54866;53.458;14.540;2023-06-01T10:09:12;100795.46;;;18.14;52.39
68077;BME280;54866;53.458;14.540;2023-06-01T10:11:47;100801.21;;;18.10;52.63
68077;BME280;54866;53.458;14.540;2023-06-01T10:14:17;100792.96;;;18.32;52.66
68077;BME280;54866;53.458;14.540;2023-06-01T10:16:47;100793.24;;;18.57;51.91
68077;BME280;54866;53.458;14.540;2023-06-01T10:19:18;100789.32;;;18.75;52.05
68077;BME280;54866;53.458;14.540;2023-06-01T10:21:48;100789.09;;;18.93;51.26
68077;BME280;54866;53.458;14.540;2023-06-01T10:24:19;100790.09;;;19.05;50.93
68077;BME280;54866;53.458;14.540;2023-06-01T10:26:55;100789.05;;;19.15;49.54
68077;BME280;54866;53.458;14.540;2023-06-01T10:29:26;100779.08;;;18.88;49.52
68077;BME280;54866;53.458;14.540;2023-06-01T10:31:56;100787.15;;;18.74;50.30
68077;BME280;54866;53.458;14.540;2023-06-01T10:34:46;100788.66;;;18.73;50.38
68077;BME280;54866;53.458;14.540;2023-06-01T10:37:19;100786.31;;;18.60;50.35
68077;BME280;54866;53.458;14.540;2023-06-01T10:39:48;100784.93;;;18.79;50.38
68077;BME280;54866;53.458;14.540;2023-06-01T10:42:40;100782.91;;;19.10;50.70
68077;BME280;54866;53.458;14.540;2023-06-01T10:45:37;100778.80;;;19.16;49.49
68077;BME280;54866;53.458;14.540;2023-06-01T10:48:08;100784.26;;;18.77;49.86
68077;BME280;54866;53.458;14.540;2023-06-01T10:50:40;100778.15;;;18.51;50.96
68077;BME280;54866;53.458;14.540;2023-06-01T10:53:29;100777.43;;;18.32;51.45
68077;BME280;54866;53.458;14.540;2023-06-01T10:56:23;100782.20;;;18.50;51.72
68077;BME280;54866;53.458;14.540;2023-06-01T10:59:13;100779.05;;;18.53;51.74
68077;BME280;54866;53.458;14.540;2023-06-01T11:01:44;100772.48;;;18.78;51.38
68077;BME280;54866;53.458;14.540;2023-06-01T11:04:15;100768.60;;;19.10;50.20
68077;BME280;54866;53.458;14.540;2023-06-01T11:06:44;100765.88;;;19.32;49.28
68077;BME280;54866;53.458;14.540;2023-06-01T11:09:14;100768.72;;;19.37;49.00
68077;BME280;54866;53.458;14.540;2023-06-01T11:12:02;100764.90;;;19.36;49.11
68077;BME280;54866;53.458;14.540;2023-06-01T11:14:32;100765.80;;;19.17;49.26
68077;BME280;54866;53.458;14.540;2023-06-01T11:17:29;100771.86;;;19.23;49.45
68077;BME280;54866;53.458;14.540;2023-06-01T11:20:02;100764.95;;;19.20;48.21
68077;BME280;54866;53.458;14.540;2023-06-01T11:22:39;100763.65;;;19.08;48.51
68077;BME280;54866;53.458;14.540;2023-06-01T11:25:11;100756.95;;;19.29;48.74
68077;BME280;54866;53.458;14.540;2023-06-01T11:27:46;100757.40;;;19.42;48.74
68077;BME280;54866;53.458;14.540;2023-06-01T11:30:21;100756.90;;;19.71;48.16
68077;BME280;54866;53.458;14.540;2023-06-01T11:32:53;100744.79;;;19.96;46.83
68077;BME280;54866;53.458;14.540;2023-06-01T11:35:23;100749.52;;;19.99;46.96
68077;BME280;54866;53.458;14.540;2023-06-01T11:37:56;100748.80;;;20.02;47.29
68077;BME280;54866;53.458;14.540;2023-06-01T11:40:26;100750.34;;;19.98;47.32
68077;BME280;54866;53.458;14.540;2023-06-01T11:42:56;100753.77;;;19.92;47.51
68077;BME280;54866;53.458;14.540;2023-06-01T11:45:26;100751.70;;;19.98;47.29
68077;BME280;54866;53.458;14.540;2023-06-01T11:47:56;100749.96;;;20.12;46.71
68077;BME280;54866;53.458;14.540;2023-06-01T11:50:26;100750.51;;;20.23;46.73
68077;BME280;54866;53.458;14.540;2023-06-01T11:52:57;100748.80;;;20.19;45.74
68077;BME280;54866;53.458;14.540;2023-06-01T11:55:29;100753.29;;;20.36;46.50
68077;BME280;54866;53.458;14.540;2023-06-01T11:57:59;100753.34;;;20.61;46.08
68077;BME280;54866;53.458;14.540;2023-06-01T12:00:30;100753.18;;;20.75;45.73
68077;BME280;54866;53.458;14.540;2023-06-01T12:03:09;100747.21;;;20.74;44.78
68077;BME280;54866;53.458;14.540;2023-06-01T12:05:42;100747.96;;;20.53;44.58
68077;BME280;54866;53.458;14.540;2023-06-01T12:08:17;100753.70;;;20.58;45.06
68077;BME280;54866;53.458;14.540;2023-06-01T12:10:49;100743.15;;;20.52;44.53
68077;BME280;54866;53.458;14.540;2023-06-01T12:13:20;100742.45;;;20.41;44.83
68077;BME280;54866;53.458;14.540;2023-06-01T12:15:53;100734.85;;;20.33;45.06
68077;BME280;54866;53.458;14.540;2023-06-01T12:18:31;100737.95;;;20.20;45.19
68077;BME280;54866;53.458;14.540;2023-06-01T12:21:09;100739.52;;;20.22;45.64
68077;BME280;54866;53.458;14.540;2023-06-01T12:23:40;100735.74;;;20.46;45.10
68077;BME280;54866;53.458;14.540;2023-06-01T12:26:09;100731.90;;;20.62;44.44
68077;BME280;54866;53.458;14.540;2023-06-01T12:28:53;100737.83;;;20.63;45.04
68077;BME280;54866;53.458;14.540;2023-06-01T12:31:23;100733.10;;;20.70;45.62
68077;BME280;54866;53.458;14.540;2023-06-01T12:33:53;100732.06;;;20.80;45.37
68077;BME280;54866;53.458;14.540;2023-06-01T12:36:34;100729.29;;;20.78;44.79
68077;BME280;54866;53.458;14.540;2023-06-01T12:39:05;100733.73;;;20.85;45.01
68077;BME280;54866;53.458;14.540;2023-06-01T12:41:35;100729.49;;;21.21;44.68
68077;BME280;54866;53.458;14.540;2023-06-01T12:44:05;100723.19;;;21.62;43.77
68077;BME280;54866;53.458;14.540;2023-06-01T12:46:34;100725.39;;;21.70;42.86
68077;BME280;54866;53.458;14.540;2023-06-01T12:49:14;100722.19;;;21.69;43.15
68077;BME280;54866;53.458;14.540;2023-06-01T12:51:44;100721.98;;;21.72;43.27
68077;BME280;54866;53.458;14.540;2023-06-01T12:54:15;100718.17;;;21.85;43.16
68077;BME280;54866;53.458;14.540;2023-06-01T12:56:45;100712.17;;;22.00;42.02
68077;BME280;54866;53.458;14.540;2023-06-01T12:59:16;100703.89;;;21.89;41.41
68077;BME280;54866;53.458;14.540;2023-06-01T13:01:46;100703.02;;;21.82;41.35
68077;BME280;54866;53.458;14.540;2023-06-01T13:04:16;100694.96;;;21.70;41.55
68077;BME280;54866;53.458;14.540;2023-06-01T13:06:46;100695.58;;;21.60;41.86
68077;BME280;54866;53.458;14.540;2023-06-01T13:09:15;100700.84;;;21.66;42.25
68077;BME280;54866;53.458;14.540;2023-06-01T13:11:46;100702.75;;;21.58;41.89
68077;BME280;54866;53.458;14.540;2023-06-01T13:14:16;100701.23;;;21.43;42.98
68077;BME280;54866;53.458;14.540;2023-06-01T13:16:45;100694.42;;;21.53;43.48
68077;BME280;54866;53.458;14.540;2023-06-01T13:19:15;100696.59;;;21.67;43.02
68077;BME280;54866;53.458;14.540;2023-06-01T13:21:44;100691.30;;;21.90;43.16
68077;BME280;54866;53.458;14.540;2023-06-01T13:24:15;100685.78;;;22.13;41.94
68077;BME280;54866;53.458;14.540;2023-06-01T13:26:44;100684.82;;;22.12;41.38
68077;BME280;54866;53.458;14.540;2023-06-01T13:29:15;100677.36;;;21.94;40.80
68077;BME280;54866;53.458;14.540;2023-06-01T13:31:45;100680.30;;;21.75;41.29